ADDS METAR Data INFO
IDs: Format: Raw Decoded Include TAF

Data at: 1405 UTC 12 Dec 2017

KAWG 121355Z AUTO 31012KT 10SM CLR M09/M11 A3025 RMK AO2
KAWG 121335Z AUTO 30010G16KT 10SM CLR M09/M11 A3025 RMK AO2
KAWG 121315Z AUTO 30010G16KT 10SM CLR M09/M11 A3025 RMK AO2
KAWG 121255Z AUTO 30010G16KT 10SM CLR M09/M11 A3025 RMK AO2
KAWG 121235Z AUTO 31009G17KT 10SM CLR M09/M10 A3024 RMK AO2
KAWG 121215Z AUTO 31011KT 10SM CLR M09/M10 A3024 RMK AO2
KAWG 121155Z AUTO 32012KT 10SM CLR M08/M10 A3023 RMK AO2
KAWG 121135Z AUTO 31013G18KT 10SM CLR M08/M09 A3022 RMK AO2
KAWG 121115Z AUTO 31013G18KT 10SM FEW013 M08/M09 A3022 RMK AO2
KAWG 121055Z AUTO 32015KT 10SM CLR M07/M09 A3021 RMK AO2
KAWG 121035Z AUTO 32011G18KT 10SM CLR M07/M09 A3021 RMK AO2
KAWG 121015Z AUTO 31013KT 10SM CLR M07/M08 A3021 RMK AO2
KAWG 120955Z AUTO 32015G21KT 10SM CLR M06/M09 A3021 RMK AO2
KAWG 120935Z AUTO 33014G19KT 10SM CLR M06/M10 A3021 RMK AO2
KAWG 120915Z AUTO 33015G20KT 10SM CLR M06/M10 A3021 RMK AO2
KAWG 120855Z AUTO 33014G21KT 10SM CLR M06/M09 A3021 RMK AO2
KAWG 120835Z AUTO 32015KT 10SM CLR M05/M09 A3020 RMK AO2
KAWG 120815Z AUTO 33013G20KT 10SM CLR M05/M09 A3020 RMK AO2
KAWG 120755Z AUTO 33015G22KT 10SM CLR M05/M09 A3019 RMK AO2
KAWG 120735Z AUTO 33017KT 10SM CLR M04/M09 A3018 RMK AO2
KAWG 120715Z AUTO 33018KT 10SM CLR M04/M08 A3017 RMK AO2
KAWG 120655Z AUTO 32014G21KT 10SM CLR M04/M08 A3017 RMK AO2
KAWG 120635Z AUTO 33018KT 10SM CLR M03/M08 A3016 RMK AO2
KAWG 120615Z AUTO 33020G31KT 10SM CLR M03/M08 A3015 RMK AO2
KAWG 120555Z AUTO 33022G33KT 10SM CLR M03/M08 A3014 RMK AO2
KAWG 120535Z AUTO 33024G33KT 10SM CLR M02/M07 A3014 RMK AO2
KAWG 120515Z AUTO 34023G28KT 10SM FEW035 M01/M07 A3013 RMK AO2
KAWG 120455Z AUTO 33023G33KT 10SM SCT033 M01/M06 A3012 RMK AO2
KAWG 120435Z AUTO 32021G28KT 10SM OVC032 00/M05 A3011 RMK AO2
KAWG 120415Z AUTO 32021G27KT 10SM OVC029 01/M04 A3009 RMK AO2
KAWG 120355Z AUTO 32027G37KT 10SM OVC026 01/M03 A3009 RMK AO2
KAWG 120335Z AUTO 33015KT 10SM OVC029 01/M02 A3008 RMK AO2
KAWG 120315Z AUTO 33018G25KT 10SM SCT026 OVC031 02/M02 A3007 RMK AO2
KAWG 120255Z AUTO 33018G30KT 10SM OVC025 02/M02 A3006 RMK AO2
KAWG 120235Z AUTO 33023G29KT 10SM OVC023 02/M01 A3004 RMK AO2
KAWG 120215Z AUTO 32015G22KT 10SM BKN020 OVC025 02/01 A3002 RMK AO2
KAWG 120155Z AUTO 32017G22KT 10SM OVC021 03/01 A3001 RMK AO2
KAWG 120135Z AUTO 33015KT 10SM BKN017 OVC022 03/01 A3000 RMK AO2
KAWG 120115Z AUTO 32017G24KT 10SM OVC017 03/01 A2998 RMK AO2
KAWG 120055Z AUTO 32015G24KT 10SM OVC017 03/02 A2997 RMK AO2
KAWG 120035Z AUTO 32018G24KT 10SM OVC017 03/02 A2996 RMK AO2
KAWG 120015Z AUTO 32017G26KT 10SM OVC015 03/02 A2995 RMK AO2
KAWG 112355Z AUTO 32018KT 10SM OVC015 03/02 A2993 RMK AO2
KAWG 112335Z AUTO 32018G24KT 10SM OVC016 03/02 A2992 RMK AO2
KAWG 112315Z AUTO 32020G29KT 10SM OVC016 04/02 A2991 RMK AO2
KAWG 112255Z AUTO 31014G21KT 10SM FEW010 OVC015 03/03 A2989 RMK AO2
KAWG 112235Z AUTO 31013G18KT 3SM -RA FEW010 BKN015 BKN026 03/03 A2988 RMK AO2
KAWG 112215Z AUTO 31014G24KT 6SM -RA FEW013 SCT025 SCT032 03/03 A2987 RMK AO2
KAWG 112155Z AUTO 31020G25KT 8SM -RA BKN013 BKN020 03/03 A2985 RMK AO2
KAWG 112135Z AUTO 31018G23KT 10SM OVC013 03/02 A2984 RMK AO2
KAWG 112115Z AUTO 32023G31KT 10SM -UP OVC015 04/02 A2983 RMK AO2
KAWG 112055Z AUTO 32022G30KT 10SM OVC017 04/01 A2981 RMK AO2
KAWG 112035Z AUTO 31023G35KT 10SM BKN020 OVC029 05/01 A2980 RMK AO2
KAWG 112015Z AUTO 32023G31KT 10SM BKN031 BKN070 06/M00 A2978 RMK AO2
KAWG 111955Z AUTO 31023G32KT 10SM FEW033 SCT048 SCT055 07/M01 A2977 RMK AO2
KAWG 111935Z AUTO 30021G31KT 10SM SCT048 BKN055 BKN080 06/M01 A2975 RMK AO2
KAWG 111915Z AUTO 30023G32KT 10SM SCT043 BKN080 06/M01 A2974 RMK AO2
KAWG 111855Z AUTO 31026G32KT 10SM CLR 07/M02 A2973 RMK AO2
KAWG 111835Z AUTO 30022G34KT 10SM CLR 07/M02 A2973 RMK AO2
KAWG 111815Z AUTO 31025G35KT 10SM CLR 06/M03 A2972 RMK AO2
KAWG 111755Z AUTO 30028G33KT 10SM CLR 07/M03 A2972 RMK AO2
KAWG 111735Z AUTO 30023G33KT 10SM CLR 06/M04 A2972 RMK AO2
KAWG 111715Z AUTO 29022G28KT 10SM CLR 06/M04 A2972 RMK AO2
KAWG 111655Z AUTO 28018KT 10SM CLR 07/M03 A2971 RMK AO2
KAWG 111635Z AUTO 29014KT 10SM CLR 06/M03 A2971 RMK AO2
KAWG 111615Z AUTO 28012KT 10SM CLR 05/M03 A2972 RMK AO2
KAWG 111555Z AUTO 24008KT 10SM CLR 03/M02 A2973 RMK AO2
KAWG 111535Z AUTO 24006KT 10SM CLR 02/M02 A2974 RMK AO2
KAWG 111515Z AUTO 22007KT 10SM CLR 01/M03 A2974 RMK AO2
KAWG 111455Z AUTO 21007KT 10SM CLR 02/M03 A2975 RMK AO2
KAWG 111435Z AUTO 22009KT 10SM CLR 01/M03 A2976 RMK AO2
KAWG 111415Z AUTO 18005KT 10SM CLR 01/M03 A2976 RMK AO2
KAWG 111355Z AUTO 18009KT 10SM CLR 00/M03 A2978 RMK AO2
KAWG 111335Z AUTO 18012KT 10SM CLR 00/M03 A2978 RMK AO2
KAWG 111315Z AUTO 19014KT 10SM CLR M00/M03 A2980 RMK AO2
KAWG 111255Z AUTO 19014KT 10SM CLR M00/M03 A2982 RMK AO2
KAWG 111235Z AUTO 19012KT 10SM FEW110 M00/M03 A2984 RMK AO2
KAWG 111215Z AUTO 19009KT 10SM SCT110 M00/M03 A2986 RMK AO2
KAWG 111155Z AUTO 18009KT 10SM BKN110 M00/M03 A2988 RMK AO2
KAWG 111135Z AUTO 16007KT 10SM BKN120 M01/M03 A2990 RMK AO2
KAWG 111115Z AUTO 17003KT 10SM FEW120 M01/M03 A2992 RMK AO2
KAWG 111055Z AUTO 17006KT 10SM FEW100 FEW120 M01/M03 A2993 RMK AO2
KAWG 111035Z AUTO 18007KT 10SM SCT100 BKN120 M01/M03 A2994 RMK AO2
KAWG 111015Z AUTO 18008KT 10SM FEW120 M02/M04 A2996 RMK AO2
KAWG 110955Z AUTO 00000KT 10SM FEW120 M02/M03 A2997 RMK AO2
KAWG 110935Z AUTO 15006KT 10SM FEW120 M02/M03 A2997 RMK AO2
KAWG 110915Z AUTO 16005KT 10SM CLR M02/M04 A2999 RMK AO2
KAWG 110855Z AUTO 16004KT 10SM CLR M03/M04 A3001 RMK AO2
KAWG 110835Z AUTO 14004KT 10SM CLR M03/M04 A3000 RMK AO2
KAWG 110815Z AUTO 16004KT 10SM FEW120 M02/M04 A3002 RMK AO2
KAWG 110755Z AUTO 16007KT 10SM CLR M02/M04 A3001 RMK AO2
KAWG 110735Z AUTO 16005KT 10SM CLR M01/M04 A3003 RMK AO2
KAWG 110715Z AUTO 17005KT 10SM CLR M00/M03 A3005 RMK AO2
KAWG 110655Z AUTO 18005KT 10SM CLR M00/M04 A3005 RMK AO2
KAWG 110635Z AUTO 16006KT 10SM CLR M00/M04 A3004 RMK AO2
KAWG 110615Z AUTO 16006KT 10SM CLR M00/M04 A3006 RMK AO2
KAWG 110555Z AUTO 16006KT 10SM CLR M01/M04 A3007 RMK AO2
KAWG 110535Z AUTO 17006KT 10SM CLR M01/M04 A3008 RMK AO2
KAWG 110515Z AUTO 15006KT 10SM SCT100 M01/M04 A3007 RMK AO2
KAWG 110455Z AUTO 14006KT 10SM OVC100 M01/M04 A3008 RMK AO2
KAWG 110435Z AUTO 13006KT 10SM OVC100 M01/M04 A3009 RMK AO2
KAWG 110415Z AUTO 13003KT 10SM OVC100 M01/M04 A3010 RMK AO2
KAWG 110355Z AUTO 12005KT 10SM OVC100 M01/M04 A3010 RMK AO2
KAWG 110335Z AUTO 07007KT 10SM OVC110 M01/M04 A3011 RMK AO2
KAWG 110315Z AUTO 03003KT 10SM OVC100 M01/M04 A3011 RMK AO2
KAWG 110255Z AUTO 00000KT 10SM OVC110 M01/M05 A3011 RMK AO2
KAWG 110235Z AUTO 00000KT 10SM OVC110 M01/M05 A3011 RMK AO2
KAWG 110215Z AUTO 00000KT 10SM BKN110 M02/M05 A3010 RMK AO2